Time,TemperatureF,DewpointF,PressureIn,WindDirection,WindDirectionDegrees,WindSpeedMPH,WindSpeedGustMPH,Humidity,HourlyPrecipIn,Conditions,Clouds,dailyrainin,SoftwareType,DateUTC
2013-04-01 00:02:00,66.0,40.0,-100.00,WSW,252,1.0,0.0,39,0.00,,,0.00,,2013-04-01 07:02:00,
2013-04-01 00:11:00,66.0,40.0,-100.00,WSW,252,1.0,0.0,39,0.00,,,0.00,,2013-04-01 07:11:00,
2013-04-01 00:21:00,65.0,39.0,-100.00,NW,309,0.0,1.0,39,0.00,,,0.00,,2013-04-01 07:21:00,
2013-04-01 00:31:00,64.0,39.0,-100.00,SW,221,0.0,0.0,40,0.00,,,0.00,,2013-04-01 07:31:00,
2013-04-01 00:42:00,64.0,39.0,-100.00,SW,221,0.0,0.0,40,0.00,,,0.00,,2013-04-01 07:42:00,
2013-04-01 00:52:00,64.0,40.0,-100.00,NNE,23,2.0,2.0,42,0.00,,,0.00,,2013-04-01 07:52:00,
2013-04-01 01:02:00,64.0,40.0,-100.00,SSE,156,2.0,2.0,41,0.00,,,0.00,,2013-04-01 08:02:00,
2013-04-01 01:11:00,64.0,40.0,-100.00,SSE,156,2.0,2.0,41,0.00,,,0.00,,2013-04-01 08:11:00,
2013-04-01 01:21:00,63.0,40.0,-100.00,SSW,207,5.0,5.0,42,0.00,,,0.00,,2013-04-01 08:21:00,
2013-04-01 01:31:00,62.0,39.0,-100.00,West,259,3.0,3.0,43,0.00,,,0.00,,2013-04-01 08:31:00,
2013-04-01 01:42:00,62.0,39.0,-100.00,West,259,3.0,3.0,43,0.00,,,0.00,,2013-04-01 08:42:00,
2013-04-01 01:52:00,62.0,40.0,-100.00,SSW,197,4.0,4.0,44,0.00,,,0.00,,2013-04-01 08:52:00,
2013-04-01 02:01:00,62.0,40.0,-100.00,SSE,153,3.0,3.0,45,0.00,,,0.00,,2013-04-01 09:01:00,
2013-04-01 02:11:00,62.0,40.0,-100.00,SSE,153,3.0,3.0,45,0.00,,,0.00,,2013-04-01 09:11:00,
2013-04-01 02:21:00,62.0,40.0,-100.00,WNW,294,3.0,3.0,45,0.00,,,0.00,,2013-04-01 09:21:00,
2013-04-01 02:32:00,62.0,40.0,-100.00,SW,236,5.0,6.0,45,0.00,,,0.00,,2013-04-01 09:32:00,
2013-04-01 02:42:00,62.0,40.0,-100.00,SW,236,5.0,6.0,45,0.00,,,0.00,,2013-04-01 09:42:00,
2013-04-01 02:52:00,61.0,40.0,-100.00,West,267,4.0,5.0,46,0.00,,,0.00,,2013-04-01 09:52:00,
2013-04-01 03:02:00,61.0,40.0,-100.00,NW,311,3.0,3.0,46,0.00,,,0.00,,2013-04-01 10:02:00,
2013-04-01 03:12:00,61.0,40.0,-100.00,NW,311,3.0,3.0,46,0.00,,,0.00,,2013-04-01 10:12:00,
2013-04-01 03:22:00,61.0,40.0,-100.00,ESE,118,3.0,3.0,46,0.00,,,0.00,,2013-04-01 10:22:00,
2013-04-01 03:32:00,61.0,40.0,-100.00,East,84,5.0,5.0,46,0.00,,,0.00,,2013-04-01 10:32:00,
2013-04-01 03:42:00,61.0,40.0,-100.00,East,84,5.0,5.0,46,0.00,,,0.00,,2013-04-01 10:42:00,
2013-04-01 03:52:00,60.0,40.0,-100.00,East,89,1.0,0.0,47,0.00,,,0.00,,2013-04-01 10:52:00,
2013-04-01 04:02:00,59.0,39.0,-100.00,ESE,111,0.0,0.0,47,0.00,,,0.00,,2013-04-01 11:02:00,
2013-04-01 04:11:00,59.0,39.0,-100.00,ESE,111,0.0,0.0,47,0.00,,,0.00,,2013-04-01 11:11:00,
2013-04-01 04:22:00,58.0,38.0,-100.00,WNW,300,0.0,0.0,48,0.00,,,0.00,,2013-04-01 11:22:00,
2013-04-01 04:32:00,58.0,39.0,-100.00,NNE,32,0.0,2.0,49,0.00,,,0.00,,2013-04-01 11:32:00,
2013-04-01 04:42:00,58.0,39.0,-100.00,NNE,32,0.0,2.0,49,0.00,,,0.00,,2013-04-01 11:42:00,
2013-04-01 04:52:00,58.0,39.0,-100.00,North,11,0.0,0.0,49,0.00,,,0.00,,2013-04-01 11:52:00,
2013-04-01 05:02:00,59.0,40.0,-100.00,North,350,0.0,1.0,50,0.00,,,0.00,,2013-04-01 12:02:00,
2013-04-01 05:11:00,59.0,40.0,-100.00,North,350,0.0,1.0,50,0.00,,,0.00,,2013-04-01 12:11:00,
2013-04-01 05:22:00,60.0,41.0,-100.00,NW,321,3.0,3.0,50,0.00,,,0.00,,2013-04-01 12:22:00,
2013-04-01 05:31:00,59.0,41.0,-100.00,NW,323,0.0,0.0,51,0.00,,,0.00,,2013-04-01 12:31:00,
2013-04-01 05:41:00,59.0,41.0,-100.00,NW,323,0.0,0.0,51,0.00,,,0.00,,2013-04-01 12:41:00,
2013-04-01 05:52:00,58.0,40.0,-100.00,NW,322,1.0,0.0,52,0.00,,,0.00,,2013-04-01 12:52:00,
2013-04-01 06:11:00,58.0,41.0,-100.00,NNW,338,0.0,0.0,53,0.00,,,0.00,,2013-04-01 13:11:00,
2013-04-01 06:21:00,57.0,41.0,-100.00,North,11,2.0,2.0,55,0.00,,,0.00,,2013-04-01 13:21:00,
2013-04-01 06:31:00,57.0,41.0,-100.00,NNE,17,2.0,2.0,56,0.00,,,0.00,,2013-04-01 13:31:00,
2013-04-01 06:41:00,57.0,41.0,-100.00,NNE,17,2.0,2.0,56,0.00,,,0.00,,2013-04-01 13:41:00,
2013-04-01 06:52:00,57.0,41.0,-100.00,NE,42,0.0,0.0,55,0.00,,,0.00,,2013-04-01 13:52:00,
2013-04-01 07:01:00,57.0,41.0,-100.00,NNW,336,0.0,0.0,55,0.00,,,0.00,,2013-04-01 14:01:00,
2013-04-01 07:11:00,57.0,41.0,-100.00,NNW,336,0.0,0.0,55,0.00,,,0.00,,2013-04-01 14:11:00,
2013-04-01 07:21:00,57.0,41.0,-100.00,SSE,165,1.0,3.0,56,0.00,,,0.00,,2013-04-01 14:21:00,
2013-04-01 07:32:00,58.0,43.0,-100.00,East,82,0.0,0.0,57,0.00,,,0.00,,2013-04-01 14:32:00,
2013-04-01 07:41:00,58.0,43.0,-100.00,East,82,0.0,0.0,57,0.00,,,0.00,,2013-04-01 14:41:00,
2013-04-01 07:52:00,60.0,43.0,-100.00,East,82,0.0,0.0,54,0.00,,,0.00,,2013-04-01 14:52:00,
2013-04-01 08:01:00,62.0,44.0,-100.00,West,281,2.0,0.0,52,0.00,,,0.00,,2013-04-01 15:01:00,
2013-04-01 08:11:00,62.0,44.0,-100.00,West,281,2.0,0.0,52,0.00,,,0.00,,2013-04-01 15:11:00,
2013-04-01 08:22:00,63.0,44.0,-100.00,West,264,2.0,3.0,50,0.00,,,0.00,,2013-04-01 15:22:00,
2013-04-01 08:33:00,65.0,45.0,-100.00,NW,325,2.0,2.0,49,0.00,,,0.00,,2013-04-01 15:33:00,
2013-04-01 08:42:00,65.0,45.0,-100.00,NW,325,2.0,2.0,49,0.00,,,0.00,,2013-04-01 15:42:00,
2013-04-01 08:53:00,66.0,45.0,-100.00,WSW,242,0.0,2.0,47,0.00,,,0.00,,2013-04-01 15:53:00,
2013-04-01 09:02:00,66.0,45.0,-100.00,NW,312,1.0,0.0,46,0.00,,,0.00,,2013-04-01 16:02:00,
2013-04-01 09:12:00,66.0,45.0,-100.00,NW,312,1.0,0.0,46,0.00,,,0.00,,2013-04-01 16:12:00,
2013-04-01 09:22:00,68.0,46.0,-100.00,SW,217,2.0,2.0,45,0.00,,,0.00,,2013-04-01 16:22:00,
2013-04-01 09:32:00,68.0,45.0,-100.00,WSW,239,3.0,3.0,44,0.00,,,0.00,,2013-04-01 16:32:00,
2013-04-01 09:42:00,68.0,45.0,-100.00,WSW,239,3.0,3.0,44,0.00,,,0.00,,2013-04-01 16:42:00,
2013-04-01 09:52:00,71.0,46.0,-100.00,WNW,283,0.0,0.0,41,0.00,,,0.00,,2013-04-01 16:52:00,
2013-04-01 10:02:00,71.0,45.0,-100.00,NW,318,2.0,2.0,39,0.00,,,0.00,,2013-04-01 17:02:00,
2013-04-01 10:12:00,71.0,45.0,-100.00,NW,318,2.0,2.0,39,0.00,,,0.00,,2013-04-01 17:12:00,
2013-04-01 10:22:00,72.0,46.0,-100.00,West,269,5.0,5.0,39,0.00,,,0.00,,2013-04-01 17:22:00,
2013-04-01 10:31:00,72.0,46.0,-100.00,West,269,5.0,5.0,39,0.00,,,0.00,,2013-04-01 17:31:00,
2013-04-01 10:41:00,72.0,46.0,-100.00,West,269,5.0,5.0,39,0.00,,,0.00,,2013-04-01 17:41:00,
2013-04-01 10:52:00,74.0,45.0,-100.00,SSW,205,2.0,2.0,35,0.00,,,0.00,,2013-04-01 17:52:00,
2013-04-01 11:02:00,76.0,45.0,-100.00,NNW,328,3.0,3.0,33,0.00,,,0.00,,2013-04-01 18:02:00,
2013-04-01 11:11:00,76.0,45.0,-100.00,NNW,328,3.0,3.0,33,0.00,,,0.00,,2013-04-01 18:11:00,
2013-04-01 11:21:00,75.0,45.0,-100.00,West,278,2.0,0.0,34,0.00,,,0.00,,2013-04-01 18:21:00,
2013-04-01 11:32:00,75.0,45.0,-100.00,SW,232,1.0,2.0,34,0.00,,,0.00,,2013-04-01 18:32:00,
2013-04-01 11:41:00,75.0,45.0,-100.00,SW,232,1.0,2.0,34,0.00,,,0.00,,2013-04-01 18:41:00,
2013-04-01 11:52:00,79.0,45.0,-100.00,WSW,253,5.0,5.0,30,0.00,,,0.00,,2013-04-01 18:52:00,
2013-04-01 12:02:00,80.0,44.0,-100.00,WNW,302,2.0,4.0,28,0.00,,,0.00,,2013-04-01 19:02:00,
2013-04-01 12:11:00,80.0,44.0,-100.00,WNW,302,2.0,4.0,28,0.00,,,0.00,,2013-04-01 19:11:00,
2013-04-01 12:22:00,79.0,43.0,-100.00,South,183,4.0,4.0,28,0.00,,,0.00,,2013-04-01 19:22:00,
2013-04-01 12:31:00,81.0,43.0,-100.00,SW,215,4.0,5.0,26,0.00,,,0.00,,2013-04-01 19:31:00,
2013-04-01 12:41:00,81.0,43.0,-100.00,SW,215,4.0,5.0,26,0.00,,,0.00,,2013-04-01 19:41:00,
2013-04-01 12:52:00,81.0,41.0,-100.00,SW,224,5.0,5.0,24,0.00,,,0.00,,2013-04-01 19:52:00,
2013-04-01 13:01:00,81.0,39.0,-100.00,South,172,7.0,9.0,22,0.00,,,0.00,,2013-04-01 20:01:00,
2013-04-01 13:11:00,81.0,39.0,-100.00,South,172,7.0,9.0,22,0.00,,,0.00,,2013-04-01 20:11:00,
2013-04-01 13:21:00,83.0,38.0,-100.00,South,187,3.0,3.0,20,0.00,,,0.00,,2013-04-01 20:21:00,
2013-04-01 13:32:00,81.0,37.0,-100.00,East,96,4.0,4.0,21,0.00,,,0.00,,2013-04-01 20:32:00,
2013-04-01 13:42:00,81.0,37.0,-100.00,East,96,4.0,4.0,21,0.00,,,0.00,,2013-04-01 20:42:00,
2013-04-01 13:51:00,83.0,36.0,-100.00,WSW,240,5.0,5.0,19,0.00,,,0.00,,2013-04-01 20:51:00,
2013-04-01 14:01:00,82.0,37.0,-100.00,West,270,4.0,6.0,20,0.00,,,0.00,,2013-04-01 21:01:00,
2013-04-01 14:11:00,82.0,37.0,-100.00,West,270,4.0,6.0,20,0.00,,,0.00,,2013-04-01 21:11:00,
2013-04-01 14:22:00,82.0,34.0,-100.00,SSE,149,10.0,11.0,18,0.00,,,0.00,,2013-04-01 21:22:00,
2013-04-01 14:32:00,83.0,34.0,-100.00,SW,217,8.0,8.0,17,0.00,,,0.00,,2013-04-01 21:32:00,
2013-04-01 14:43:00,83.0,34.0,-100.00,SW,217,8.0,8.0,17,0.00,,,0.00,,2013-04-01 21:43:00,
2013-04-01 14:52:00,83.0,31.0,-100.00,WSW,238,10.0,10.0,15,0.00,,,0.00,,2013-04-01 21:52:00,
2013-04-01 15:02:00,83.0,31.0,-100.00,WNW,293,8.0,8.0,15,0.00,,,0.00,,2013-04-01 22:02:00,
2013-04-01 15:12:00,83.0,31.0,-100.00,WNW,293,8.0,8.0,15,0.00,,,0.00,,2013-04-01 22:12:00,
2013-04-01 15:22:00,82.0,30.0,-100.00,South,188,8.0,10.0,15,0.00,,,0.00,,2013-04-01 22:22:00,
2013-04-01 15:32:00,83.0,29.0,-100.00,South,174,7.0,7.0,14,0.00,,,0.00,,2013-04-01 22:32:00,
2013-04-01 15:42:00,83.0,29.0,-100.00,South,174,7.0,7.0,14,0.00,,,0.00,,2013-04-01 22:42:00,
2013-04-01 15:52:00,82.0,26.0,-100.00,SW,221,7.0,7.0,13,0.00,,,0.00,,2013-04-01 22:52:00,
2013-04-01 16:02:00,84.0,26.0,-100.00,WSW,242,8.0,8.0,12,0.00,,,0.00,,2013-04-01 23:02:00,
2013-04-01 16:11:00,84.0,26.0,-100.00,WSW,242,8.0,8.0,12,0.00,,,0.00,,2013-04-01 23:11:00,
2013-04-01 16:22:00,82.0,26.0,-100.00,SW,221,7.0,7.0,13,0.00,,,0.00,,2013-04-01 23:22:00,
2013-04-01 16:32:00,83.0,23.0,-100.00,SW,222,8.0,8.0,11,0.00,,,0.00,,2013-04-01 23:32:00,
2013-04-01 16:42:00,83.0,23.0,-100.00,SW,222,8.0,8.0,11,0.00,,,0.00,,2013-04-01 23:42:00,
2013-04-01 16:53:00,82.0,26.0,-100.00,SSW,200,7.0,7.0,13,0.00,,,0.00,,2013-04-01 23:53:00,
2013-04-01 17:02:00,81.0,27.0,-100.00,West,269,9.0,9.0,14,0.00,,,0.00,,2013-04-02 00:02:00,
2013-04-01 17:11:00,81.0,27.0,-100.00,West,269,9.0,9.0,14,0.00,,,0.00,,2013-04-02 00:11:00,
2013-04-01 17:21:00,81.0,31.0,-100.00,South,190,7.0,13.0,16,0.00,,,0.00,,2013-04-02 00:21:00,
2013-04-01 17:32:00,80.0,30.0,-100.00,WSW,239,8.0,8.0,16,0.00,,,0.00,,2013-04-02 00:32:00,
2013-04-01 17:42:00,80.0,30.0,-100.00,WSW,239,8.0,8.0,16,0.00,,,0.00,,2013-04-02 00:42:00,
2013-04-01 17:52:00,80.0,23.0,-100.00,SW,231,9.0,9.0,12,0.00,,,0.00,,2013-04-02 00:52:00,
2013-04-01 18:01:00,80.0,27.0,-100.00,SSW,194,7.0,11.0,14,0.00,,,0.00,,2013-04-02 01:01:00,
2013-04-01 18:11:00,80.0,27.0,-100.00,SSW,194,7.0,11.0,14,0.00,,,0.00,,2013-04-02 01:11:00,
2013-04-01 18:21:00,79.0,29.0,-100.00,South,177,9.0,9.0,16,0.00,,,0.00,,2013-04-02 01:21:00,
2013-04-01 18:31:00,78.0,30.0,-100.00,SW,214,7.0,9.0,17,0.00,,,0.00,,2013-04-02 01:31:00,
2013-04-01 18:41:00,78.0,30.0,-100.00,SW,214,7.0,9.0,17,0.00,,,0.00,,2013-04-02 01:41:00,
2013-04-01 18:52:00,78.0,30.0,-100.00,SW,221,9.0,9.0,17,0.00,,,0.00,,2013-04-02 01:52:00,
2013-04-01 19:01:00,77.0,32.0,-100.00,WSW,246,6.0,6.0,19,0.00,,,0.00,,2013-04-02 02:01:00,
2013-04-01 19:11:00,77.0,32.0,-100.00,WSW,246,6.0,6.0,19,0.00,,,0.00,,2013-04-02 02:11:00,
2013-04-01 19:21:00,76.0,32.0,-100.00,SW,218,4.0,5.0,20,0.00,,,0.00,,2013-04-02 02:21:00,
2013-04-01 19:31:00,75.0,34.0,-100.00,SSE,158,5.0,5.0,22,0.00,,,0.00,,2013-04-02 02:31:00,
2013-04-01 19:41:00,75.0,34.0,-100.00,SSE,158,5.0,5.0,22,0.00,,,0.00,,2013-04-02 02:41:00,
2013-04-01 19:52:00,74.0,34.0,-100.00,SW,224,4.0,4.0,23,0.00,,,0.00,,2013-04-02 02:52:00,
2013-04-01 20:01:00,73.0,34.0,-100.00,SW,225,2.0,3.0,24,0.00,,,0.00,,2013-04-02 03:01:00,
2013-04-01 20:11:00,73.0,34.0,-100.00,SW,225,2.0,3.0,24,0.00,,,0.00,,2013-04-02 03:11:00,
2013-04-01 20:21:00,73.0,35.0,-100.00,WSW,257,2.0,2.0,25,0.00,,,0.00,,2013-04-02 03:21:00,
2013-04-01 20:33:00,72.0,35.0,-100.00,SSW,201,1.0,2.0,26,0.00,,,0.00,,2013-04-02 03:33:00,
2013-04-01 20:42:00,72.0,35.0,-100.00,SSW,201,1.0,2.0,26,0.00,,,0.00,,2013-04-02 03:42:00,
2013-04-01 20:53:00,72.0,35.0,-100.00,SSW,198,1.0,0.0,26,0.00,,,0.00,,2013-04-02 03:53:00,
2013-04-01 21:02:00,71.0,35.0,-100.00,East,89,3.0,3.0,27,0.00,,,0.00,,2013-04-02 04:02:00,
2013-04-01 21:12:00,71.0,35.0,-100.00,East,89,3.0,3.0,27,0.00,,,0.00,,2013-04-02 04:12:00,
2013-04-01 21:22:00,70.0,37.0,-100.00,NW,316,4.0,4.0,30,0.00,,,0.00,,2013-04-02 04:22:00,
2013-04-01 21:32:00,70.0,38.0,-100.00,WSW,253,4.0,4.0,31,0.00,,,0.00,,2013-04-02 04:32:00,
2013-04-01 21:42:00,70.0,38.0,-100.00,WSW,253,4.0,4.0,31,0.00,,,0.00,,2013-04-02 04:42:00,
2013-04-01 21:53:00,69.0,39.0,-100.00,South,183,4.0,4.0,33,0.00,,,0.00,,2013-04-02 04:53:00,
2013-04-01 22:01:00,68.0,39.0,-100.00,SW,231,2.0,0.0,34,0.00,,,0.00,,2013-04-02 05:01:00,
2013-04-01 22:11:00,68.0,39.0,-100.00,SW,231,2.0,0.0,34,0.00,,,0.00,,2013-04-02 05:11:00,
2013-04-01 22:22:00,67.0,39.0,-100.00,SSW,198,1.0,1.0,36,0.00,,,0.00,,2013-04-02 05:22:00,
2013-04-01 22:32:00,67.0,40.0,-100.00,West,273,2.0,3.0,37,0.00,,,0.00,,2013-04-02 05:32:00,
2013-04-01 22:42:00,67.0,40.0,-100.00,West,273,2.0,3.0,37,0.00,,,0.00,,2013-04-02 05:42:00,
2013-04-01 22:52:00,66.0,40.0,-100.00,SW,229,2.0,5.0,38,0.00,,,0.00,,2013-04-02 05:52:00,
2013-04-01 23:01:00,65.0,41.0,-100.00,NNW,330,5.0,5.0,41,0.00,,,0.00,,2013-04-02 06:01:00,
2013-04-01 23:11:00,65.0,41.0,-100.00,NNW,330,5.0,5.0,41,0.00,,,0.00,,2013-04-02 06:11:00,
2013-04-01 23:21:00,65.0,41.0,-100.00,WSW,239,4.0,4.0,42,0.00,,,0.00,,2013-04-02 06:21:00,
2013-04-01 23:31:00,64.0,42.0,-100.00,WNW,287,6.0,6.0,44,0.00,,,0.00,,2013-04-02 06:31:00,
2013-04-01 23:41:00,64.0,42.0,-100.00,WNW,287,6.0,6.0,44,0.00,,,0.00,,2013-04-02 06:41:00,
2013-04-01 23:52:00,64.0,42.0,-100.00,SSE,156,2.0,2.0,45,0.00,,,0.00,,2013-04-02 06:52:00,